Terminal Aerodrome Forecast
Issued by NWS

Home | Current Version | Previous Version | Graphics & Text | Print | Product List | Glossary Off
Versions: 1 2 3 4 5 6 7 8 9 10 11 12 13 14 15 16 17 18 19 20 21 22

671
FTUS43 KBIS 130525
TAFDIK
TAF
KDIK 130525Z 1306/1406 14014KT P6SM OVC035
      TEMPO 1306/1309 3SM -SN BR BKN015 OVC035
     FM131000 15016KT P6SM OVC025
     FM131300 16015KT P6SM OVC010
     FM131700 16014KT P6SM OVC015
     FM131800 17014KT P6SM VCSH OVC020
     FM132100 18014KT 6SM -RASN OVC010
     FM140000 21010KT P6SM -SN OVC010
     FM140300 26012KT P6SM VCSH OVC015=

USA.gov is the U.S. government's official web portal to all federal, state and local government web resources and services.